sensor_id;sensor_type;location;lat;lon;timestamp;pressure;altitude;pressure_sealevel;temperature;humidity
42761;BME280;31672;47.638;19.026;2023-07-13T00:00:55;99898.78;;;22.30;95.15
42761;BME280;31672;47.638;19.026;2023-07-13T00:06:01;99878.63;;;21.82;96.79
42761;BME280;31672;47.638;19.026;2023-07-13T00:11:05;99873.63;;;21.35;99.84
42761;BME280;31672;47.638;19.026;2023-07-13T00:16:11;99847.06;;;20.98;100.00
42761;BME280;31672;47.638;19.026;2023-07-13T00:21:16;99818.81;;;20.72;100.00
42761;BME280;31672;47.638;19.026;2023-07-13T00:26:20;99788.03;;;20.45;100.00
42761;BME280;31672;47.638;19.026;2023-07-13T00:31:24;99775.00;;;20.25;100.00
42761;BME280;31672;47.638;19.026;2023-07-13T00:36:30;99752.44;;;20.02;100.00
42761;BME280;31672;47.638;19.026;2023-07-13T00:41:34;99699.97;;;19.93;100.00
42761;BME280;31672;47.638;19.026;2023-07-13T00:46:39;99751.22;;;19.93;100.00
42761;BME280;31672;47.638;19.026;2023-07-13T00:52:07;99751.47;;;19.92;100.00
42761;BME280;31672;47.638;19.026;2023-07-13T00:57:15;99728.47;;;19.89;100.00
42761;BME280;31672;47.638;19.026;2023-07-13T01:02:20;99723.31;;;19.88;100.00
42761;BME280;31672;47.638;19.026;2023-07-13T01:07:25;99720.06;;;19.86;100.00
42761;BME280;31672;47.638;19.026;2023-07-13T01:12:29;99739.25;;;19.89;100.00
42761;BME280;31672;47.638;19.026;2023-07-13T01:17:34;99737.22;;;19.96;100.00
42761;BME280;31672;47.638;19.026;2023-07-13T01:22:38;99710.75;;;19.93;100.00
42761;BME280;31672;47.638;19.026;2023-07-13T01:27:42;99702.56;;;19.88;100.00
42761;BME280;31672;47.638;19.026;2023-07-13T01:32:46;99709.03;;;19.87;100.00
42761;BME280;31672;47.638;19.026;2023-07-13T01:37:55;99711.50;;;19.77;100.00
42761;BME280;31672;47.638;19.026;2023-07-13T01:43:00;99710.72;;;19.65;100.00
42761;BME280;31672;47.638;19.026;2023-07-13T01:48:05;99714.50;;;19.64;100.00
42761;BME280;31672;47.638;19.026;2023-07-13T01:53:10;99727.97;;;19.64;100.00
42761;BME280;31672;47.638;19.026;2023-07-13T01:58:14;99723.41;;;19.64;100.00
42761;BME280;31672;47.638;19.026;2023-07-13T02:03:17;99715.31;;;19.64;100.00
42761;BME280;31672;47.638;19.026;2023-07-13T02:08:21;99713.94;;;19.62;100.00
42761;BME280;31672;47.638;19.026;2023-07-13T02:13:27;99707.22;;;19.64;100.00
42761;BME280;31672;47.638;19.026;2023-07-13T02:18:30;99718.81;;;19.65;100.00
42761;BME280;31672;47.638;19.026;2023-07-13T02:23:34;99709.09;;;19.64;100.00
42761;BME280;31672;47.638;19.026;2023-07-13T02:28:37;99725.38;;;19.57;100.00
42761;BME280;31672;47.638;19.026;2023-07-13T02:33:42;99711.78;;;19.52;100.00
42761;BME280;31672;47.638;19.026;2023-07-13T02:38:46;99722.31;;;19.53;100.00
42761;BME280;31672;47.638;19.026;2023-07-13T02:43:49;99713.19;;;19.55;100.00
42761;BME280;31672;47.638;19.026;2023-07-13T02:48:53;99719.53;;;19.48;100.00
42761;BME280;31672;47.638;19.026;2023-07-13T02:53:56;99726.22;;;19.46;100.00
42761;BME280;31672;47.638;19.026;2023-07-13T02:59:01;99721.66;;;19.46;100.00
42761;BME280;31672;47.638;19.026;2023-07-13T03:04:06;99730.78;;;19.45;100.00
42761;BME280;31672;47.638;19.026;2023-07-13T03:09:09;99744.72;;;19.42;100.00
42761;BME280;31672;47.638;19.026;2023-07-13T03:14:14;99746.28;;;19.38;100.00
42761;BME280;31672;47.638;19.026;2023-07-13T03:19:18;99746.28;;;19.38;100.00
42761;BME280;31672;47.638;19.026;2023-07-13T03:24:22;99742.53;;;19.39;100.00
42761;BME280;31672;47.638;19.026;2023-07-13T03:29:29;99726.69;;;19.43;100.00
42761;BME280;31672;47.638;19.026;2023-07-13T03:34:32;99733.81;;;19.49;100.00
42761;BME280;31672;47.638;19.026;2023-07-13T03:39:36;99742.00;;;19.54;100.00
42761;BME280;31672;47.638;19.026;2023-07-13T03:44:42;99737.94;;;19.63;100.00
42761;BME280;31672;47.638;19.026;2023-07-13T03:49:49;99736.16;;;19.69;100.00
42761;BME280;31672;47.638;19.026;2023-07-13T03:54:53;99753.59;;;19.78;100.00
42761;BME280;31672;47.638;19.026;2023-07-13T03:59:57;99758.13;;;19.89;100.00
42761;BME280;31672;47.638;19.026;2023-07-13T04:05:00;99750.81;;;20.01;100.00
42761;BME280;31672;47.638;19.026;2023-07-13T04:10:04;99764.25;;;20.13;100.00
42761;BME280;31672;47.638;19.026;2023-07-13T04:15:09;99778.09;;;20.17;100.00
42761;BME280;31672;47.638;19.026;2023-07-13T04:20:13;99799.69;;;20.17;100.00
42761;BME280;31672;47.638;19.026;2023-07-13T04:25:17;99815.25;;;20.15;100.00
42761;BME280;31672;47.638;19.026;2023-07-13T04:30:21;99837.19;;;20.18;100.00
42761;BME280;31672;47.638;19.026;2023-07-13T04:35:24;99830.97;;;20.18;100.00
42761;BME280;31672;47.638;19.026;2023-07-13T04:40:28;99828.19;;;20.13;100.00
42761;BME280;31672;47.638;19.026;2023-07-13T04:45:32;99849.63;;;20.19;100.00
42761;BME280;31672;47.638;19.026;2023-07-13T04:50:38;99856.09;;;20.18;100.00
42761;BME280;31672;47.638;19.026;2023-07-13T04:55:42;99870.75;;;20.22;100.00
42761;BME280;31672;47.638;19.026;2023-07-13T05:00:45;99889.75;;;20.27;100.00
42761;BME280;31672;47.638;19.026;2023-07-13T05:06:07;99927.03;;;20.19;100.00
42761;BME280;31672;47.638;19.026;2023-07-13T05:11:10;99982.44;;;20.10;100.00
42761;BME280;31672;47.638;19.026;2023-07-13T05:16:14;100019.38;;;19.97;100.00
42761;BME280;31672;47.638;19.026;2023-07-13T05:21:18;100046.19;;;19.81;100.00
42761;BME280;31672;47.638;19.026;2023-07-13T05:26:22;100052.47;;;19.63;100.00
42761;BME280;31672;47.638;19.026;2023-07-13T05:31:25;100025.91;;;19.48;100.00
42761;BME280;31672;47.638;19.026;2023-07-13T05:36:29;100027.75;;;19.36;100.00
42761;BME280;31672;47.638;19.026;2023-07-13T05:41:32;100035.44;;;19.20;100.00
42761;BME280;31672;47.638;19.026;2023-07-13T05:46:36;100052.81;;;19.06;100.00
42761;BME280;31672;47.638;19.026;2023-07-13T05:51:39;100040.19;;;18.88;100.00
42761;BME280;31672;47.638;19.026;2023-07-13T05:56:44;100015.78;;;18.71;100.00
42761;BME280;31672;47.638;19.026;2023-07-13T06:01:49;99994.16;;;18.60;100.00
42761;BME280;31672;47.638;19.026;2023-07-13T06:06:53;99992.41;;;18.47;100.00
42761;BME280;31672;47.638;19.026;2023-07-13T06:11:57;99999.38;;;18.36;100.00
42761;BME280;31672;47.638;19.026;2023-07-13T06:17:00;99952.91;;;18.29;100.00
42761;BME280;31672;47.638;19.026;2023-07-13T06:22:04;99837.53;;;18.21;100.00
42761;BME280;31672;47.638;19.026;2023-07-13T06:27:08;99658.75;;;18.12;100.00
42761;BME280;31672;47.638;19.026;2023-07-13T06:32:12;99603.22;;;18.06;100.00
42761;BME280;31672;47.638;19.026;2023-07-13T06:37:15;99599.47;;;18.07;100.00
42761;BME280;31672;47.638;19.026;2023-07-13T06:42:19;99588.38;;;18.15;100.00
42761;BME280;31672;47.638;19.026;2023-07-13T06:47:23;99555.03;;;18.28;100.00
42761;BME280;31672;47.638;19.026;2023-07-13T06:52:26;99603.84;;;18.43;100.00
42761;BME280;31672;47.638;19.026;2023-07-13T06:57:30;99602.78;;;18.56;100.00
42761;BME280;31672;47.638;19.026;2023-07-13T07:02:34;99643.88;;;18.75;100.00
42761;BME280;31672;47.638;19.026;2023-07-13T07:07:37;99669.84;;;18.92;100.00
42761;BME280;31672;47.638;19.026;2023-07-13T07:12:41;99784.44;;;19.23;100.00
42761;BME280;31672;47.638;19.026;2023-07-13T07:17:44;99790.19;;;19.50;100.00
42761;BME280;31672;47.638;19.026;2023-07-13T07:22:48;99777.97;;;19.71;100.00
42761;BME280;31672;47.638;19.026;2023-07-13T07:27:52;99787.22;;;19.87;100.00
42761;BME280;31672;47.638;19.026;2023-07-13T07:32:59;99802.59;;;19.87;100.00
42761;BME280;31672;47.638;19.026;2023-07-13T07:38:08;99813.00;;;19.83;100.00
42761;BME280;31672;47.638;19.026;2023-07-13T07:43:13;99846.88;;;19.91;100.00
42761;BME280;31672;47.638;19.026;2023-07-13T07:48:17;99837.81;;;19.97;100.00
42761;BME280;31672;47.638;19.026;2023-07-13T07:53:21;99855.16;;;20.13;100.00
42761;BME280;31672;47.638;19.026;2023-07-13T07:58:25;99860.88;;;20.28;100.00
42761;BME280;31672;47.638;19.026;2023-07-13T08:03:32;99859.75;;;20.52;100.00
42761;BME280;31672;47.638;19.026;2023-07-13T08:08:39;99845.09;;;20.94;100.00
42761;BME280;31672;47.638;19.026;2023-07-13T08:13:43;99844.97;;;21.34;100.00
42761;BME280;31672;47.638;19.026;2023-07-13T08:18:47;99843.66;;;21.75;100.00
42761;BME280;31672;47.638;19.026;2023-07-13T08:23:50;99830.72;;;21.99;100.00
42761;BME280;31672;47.638;19.026;2023-07-13T08:28:55;99835.41;;;22.26;100.00
42761;BME280;31672;47.638;19.026;2023-07-13T08:33:58;99846.00;;;22.54;100.00
42761;BME280;31672;47.638;19.026;2023-07-13T08:39:02;99822.91;;;22.74;99.46
42761;BME280;31672;47.638;19.026;2023-07-13T08:44:20;99821.25;;;23.00;97.79
42761;BME280;31672;47.638;19.026;2023-07-13T08:49:29;99832.53;;;23.18;92.55
42761;BME280;31672;47.638;19.026;2023-07-13T08:54:40;99839.69;;;23.35;92.00
42761;BME280;31672;47.638;19.026;2023-07-13T08:59:47;99824.09;;;23.52;87.84
42761;BME280;31672;47.638;19.026;2023-07-13T09:05:30;99838.31;;;23.69;89.13
42761;BME280;31672;47.638;19.026;2023-07-13T09:10:57;99831.84;;;23.81;84.01
42761;BME280;31672;47.638;19.026;2023-07-13T09:16:04;99839.22;;;23.90;84.91
42761;BME280;31672;47.638;19.026;2023-07-13T09:21:21;99844.22;;;24.14;83.63
42761;BME280;31672;47.638;19.026;2023-07-13T09:26:29;99848.34;;;24.26;82.04
42761;BME280;31672;47.638;19.026;2023-07-13T09:31:39;99849.75;;;24.39;80.40
42761;BME280;31672;47.638;19.026;2023-07-13T09:36:45;99856.34;;;24.53;80.50
42761;BME280;31672;47.638;19.026;2023-07-13T09:52:46;99854.22;;;25.01;76.88
42761;BME280;31672;47.638;19.026;2023-07-13T09:57:50;99863.22;;;25.17;75.87
42761;BME280;31672;47.638;19.026;2023-07-13T10:03:28;99855.06;;;25.32;74.13
42761;BME280;31672;47.638;19.026;2023-07-13T10:08:30;99862.66;;;25.51;74.39
42761;BME280;31672;47.638;19.026;2023-07-13T10:13:44;99864.25;;;25.62;73.78
42761;BME280;31672;47.638;19.026;2023-07-13T10:18:53;99869.16;;;25.75;70.77
42761;BME280;31672;47.638;19.026;2023-07-13T10:24:20;99865.31;;;25.81;71.87
42761;BME280;31672;47.638;19.026;2023-07-13T10:29:27;99865.84;;;25.94;70.13
42761;BME280;31672;47.638;19.026;2023-07-13T10:34:32;99872.91;;;26.00;69.86
42761;BME280;31672;47.638;19.026;2023-07-13T10:39:37;99870.94;;;26.15;70.16
42761;BME280;31672;47.638;19.026;2023-07-13T10:44:41;99857.22;;;26.36;69.88
42761;BME280;31672;47.638;19.026;2023-07-13T10:49:46;99880.84;;;26.51;66.58
42761;BME280;31672;47.638;19.026;2023-07-13T10:54:54;99868.06;;;26.51;65.15
42761;BME280;31672;47.638;19.026;2023-07-13T11:05:29;99865.50;;;26.70;61.75
42761;BME280;31672;47.638;19.026;2023-07-13T11:10:54;99852.38;;;26.77;61.63
42761;BME280;31672;47.638;19.026;2023-07-13T11:15:57;99848.47;;;26.88;61.50
42761;BME280;31672;47.638;19.026;2023-07-13T11:21:22;99861.44;;;27.02;61.30
42761;BME280;31672;47.638;19.026;2023-07-13T11:26:44;99837.84;;;27.21;61.58
42761;BME280;31672;47.638;19.026;2023-07-13T11:31:59;99848.81;;;27.45;60.78
42761;BME280;31672;47.638;19.026;2023-07-13T11:37:10;99853.59;;;27.58;58.56
42761;BME280;31672;47.638;19.026;2023-07-13T11:42:18;99857.69;;;27.61;57.54
42761;BME280;31672;47.638;19.026;2023-07-13T11:47:23;99853.59;;;27.58;58.74
42761;BME280;31672;47.638;19.026;2023-07-13T11:52:35;99850.41;;;27.51;56.45
42761;BME280;31672;47.638;19.026;2023-07-13T12:03:01;99840.28;;;27.52;57.01
42761;BME280;31672;47.638;19.026;2023-07-13T12:08:10;99850.00;;;27.63;56.83
42761;BME280;31672;47.638;19.026;2023-07-13T12:13:27;99836.50;;;27.77;56.98
42761;BME280;31672;47.638;19.026;2023-07-13T12:18:33;99835.47;;;27.96;54.63
42761;BME280;31672;47.638;19.026;2023-07-13T12:23:38;99835.41;;;28.02;54.53
42761;BME280;31672;47.638;19.026;2023-07-13T12:28:51;99824.72;;;28.24;54.73
42761;BME280;31672;47.638;19.026;2023-07-13T12:39:36;99834.72;;;29.09;51.85
42761;BME280;31672;47.638;19.026;2023-07-13T12:44:41;99822.13;;;29.41;50.59
42761;BME280;31672;47.638;19.026;2023-07-13T12:49:55;99816.56;;;29.73;49.76
42761;BME280;31672;47.638;19.026;2023-07-13T12:55:20;99804.81;;;30.00;47.52
42761;BME280;31672;47.638;19.026;2023-07-13T13:00:35;99801.94;;;30.33;47.67
42761;BME280;31672;47.638;19.026;2023-07-13T13:05:42;99807.34;;;30.47;47.39
42761;BME280;31672;47.638;19.026;2023-07-13T13:10:46;99807.09;;;30.71;47.39
42761;BME280;31672;47.638;19.026;2023-07-13T13:15:50;99803.63;;;31.01;47.05
42761;BME280;31672;47.638;19.026;2023-07-13T13:20:53;99793.44;;;31.24;45.29
42761;BME280;31672;47.638;19.026;2023-07-13T13:25:57;99790.00;;;31.50;44.82
42761;BME280;31672;47.638;19.026;2023-07-13T13:31:01;99797.34;;;31.71;44.49
42761;BME280;31672;47.638;19.026;2023-07-13T13:36:08;99791.84;;;31.71;41.60
42761;BME280;31672;47.638;19.026;2023-07-13T13:41:16;99805.09;;;31.30;44.05
42761;BME280;31672;47.638;19.026;2023-07-13T13:46:25;99784.94;;;31.12;43.67
42761;BME280;31672;47.638;19.026;2023-07-13T13:51:29;99787.09;;;30.92;45.62
42761;BME280;31672;47.638;19.026;2023-07-13T13:56:33;99796.31;;;30.74;45.65
42761;BME280;31672;47.638;19.026;2023-07-13T14:01:37;99801.69;;;30.43;45.65
42761;BME280;31672;47.638;19.026;2023-07-13T14:06:41;99805.81;;;30.04;46.63
42761;BME280;31672;47.638;19.026;2023-07-13T14:11:47;99803.59;;;29.65;47.58
42761;BME280;31672;47.638;19.026;2023-07-13T14:16:53;99807.97;;;29.20;48.66
42761;BME280;31672;47.638;19.026;2023-07-13T14:21:59;99813.88;;;28.94;48.99
42761;BME280;31672;47.638;19.026;2023-07-13T14:27:03;99810.00;;;28.63;49.94
42761;BME280;31672;47.638;19.026;2023-07-13T14:32:12;99808.81;;;28.31;50.84
42761;BME280;31672;47.638;19.026;2023-07-13T14:37:16;99816.75;;;28.09;51.73
42761;BME280;31672;47.638;19.026;2023-07-13T14:42:20;99823.78;;;27.91;52.82
42761;BME280;31672;47.638;19.026;2023-07-13T14:47:23;99837.41;;;27.72;51.94
42761;BME280;31672;47.638;19.026;2023-07-13T14:52:27;99844.59;;;27.58;52.68
42761;BME280;31672;47.638;19.026;2023-07-13T14:57:31;99846.75;;;27.61;52.85
42761;BME280;31672;47.638;19.026;2023-07-13T15:02:35;99847.22;;;27.68;52.45
42761;BME280;31672;47.638;19.026;2023-07-13T15:07:41;99847.19;;;27.73;53.27
42761;BME280;31672;47.638;19.026;2023-07-13T15:12:46;99849.63;;;27.74;52.53
42761;BME280;31672;47.638;19.026;2023-07-13T15:17:49;99851.03;;;27.72;51.48
42761;BME280;31672;47.638;19.026;2023-07-13T15:22:53;99850.31;;;27.61;52.17
42761;BME280;31672;47.638;19.026;2023-07-13T15:27:58;99846.34;;;27.48;52.65
42761;BME280;31672;47.638;19.026;2023-07-13T15:33:26;99854.91;;;27.37;52.74
42761;BME280;31672;47.638;19.026;2023-07-13T15:38:31;99862.63;;;27.30;53.35
42761;BME280;31672;47.638;19.026;2023-07-13T15:43:36;99866.75;;;27.22;53.79
42761;BME280;31672;47.638;19.026;2023-07-13T15:48:40;99851.56;;;27.11;53.61
42761;BME280;31672;47.638;19.026;2023-07-13T15:53:44;99846.19;;;27.01;53.28
42761;BME280;31672;47.638;19.026;2023-07-13T15:58:50;99840.50;;;26.97;54.64
42761;BME280;31672;47.638;19.026;2023-07-13T16:03:54;99829.09;;;26.90;55.47
42761;BME280;31672;47.638;19.026;2023-07-13T16:08:57;99838.13;;;26.85;55.36
42761;BME280;31672;47.638;19.026;2023-07-13T16:14:02;99859.38;;;26.88;57.08
42761;BME280;31672;47.638;19.026;2023-07-13T16:19:08;99869.78;;;26.81;56.30
42761;BME280;31672;47.638;19.026;2023-07-13T16:24:23;99872.28;;;26.73;56.77
42761;BME280;31672;47.638;19.026;2023-07-13T16:29:30;99885.94;;;26.67;58.74
42761;BME280;31672;47.638;19.026;2023-07-13T16:34:36;99875.94;;;26.58;59.24
42761;BME280;31672;47.638;19.026;2023-07-13T16:39:49;99877.59;;;26.49;59.55
42761;BME280;31672;47.638;19.026;2023-07-13T16:44:56;99870.00;;;26.46;60.60
42761;BME280;31672;47.638;19.026;2023-07-13T16:50:01;99862.94;;;26.39;61.05
42761;BME280;31672;47.638;19.026;2023-07-13T16:55:14;99858.59;;;26.33;62.08
42761;BME280;31672;47.638;19.026;2023-07-13T17:00:25;99873.28;;;26.32;62.74
42761;BME280;31672;47.638;19.026;2023-07-13T17:05:37;99870.63;;;26.27;63.82
42761;BME280;31672;47.638;19.026;2023-07-13T17:10:43;99872.81;;;26.20;63.44
42761;BME280;31672;47.638;19.026;2023-07-13T17:15:50;99883.47;;;26.11;64.18
42761;BME280;31672;47.638;19.026;2023-07-13T17:20:59;99886.22;;;26.06;65.29
42761;BME280;31672;47.638;19.026;2023-07-13T17:26:03;99886.22;;;25.96;63.57
42761;BME280;31672;47.638;19.026;2023-07-13T17:31:14;99891.44;;;25.82;63.24
42761;BME280;31672;47.638;19.026;2023-07-13T17:36:21;99890.38;;;25.68;62.19
42761;BME280;31672;47.638;19.026;2023-07-13T17:41:25;99888.19;;;25.55;60.61
42761;BME280;31672;47.638;19.026;2023-07-13T17:46:31;99892.84;;;25.44;59.98
42761;BME280;31672;47.638;19.026;2023-07-13T17:51:38;99900.47;;;25.32;58.13
42761;BME280;31672;47.638;19.026;2023-07-13T17:56:43;99897.75;;;25.22;57.30
42761;BME280;31672;47.638;19.026;2023-07-13T18:01:47;99905.34;;;25.09;57.30
42761;BME280;31672;47.638;19.026;2023-07-13T18:06:52;99901.25;;;25.02;58.05
42761;BME280;31672;47.638;19.026;2023-07-13T18:12:11;99908.81;;;24.95;58.88
42761;BME280;31672;47.638;19.026;2023-07-13T18:17:22;99914.00;;;24.91;58.98
42761;BME280;31672;47.638;19.026;2023-07-13T18:22:26;99925.13;;;24.85;60.08
42761;BME280;31672;47.638;19.026;2023-07-13T18:27:29;99915.84;;;24.75;60.77
42761;BME280;31672;47.638;19.026;2023-07-13T18:32:33;99918.03;;;24.68;60.12
42761;BME280;31672;47.638;19.026;2023-07-13T18:37:39;99941.38;;;24.64;61.54
42761;BME280;31672;47.638;19.026;2023-07-13T18:42:44;99932.66;;;24.62;62.94
42761;BME280;31672;47.638;19.026;2023-07-13T18:47:55;99937.00;;;24.53;61.95
42761;BME280;31672;47.638;19.026;2023-07-13T18:53:03;99955.97;;;24.43;61.95
42761;BME280;31672;47.638;19.026;2023-07-13T18:58:07;99961.03;;;24.29;64.17
42761;BME280;31672;47.638;19.026;2023-07-13T19:03:17;99953.09;;;24.17;65.27
42761;BME280;31672;47.638;19.026;2023-07-13T19:13:30;99952.66;;;23.88;64.42
42761;BME280;31672;47.638;19.026;2023-07-13T19:18:37;99963.09;;;23.69;65.31
42761;BME280;31672;47.638;19.026;2023-07-13T19:23:44;99979.25;;;23.59;66.38
42761;BME280;31672;47.638;19.026;2023-07-13T19:28:52;99990.84;;;23.49;67.37
42761;BME280;31672;47.638;19.026;2023-07-13T19:33:57;100002.31;;;23.30;68.20
42761;BME280;31672;47.638;19.026;2023-07-13T19:39:02;99998.13;;;23.17;68.94
42761;BME280;31672;47.638;19.026;2023-07-13T19:44:12;100004.78;;;23.04;69.19
42761;BME280;31672;47.638;19.026;2023-07-13T19:49:16;100015.00;;;22.97;69.86
42761;BME280;31672;47.638;19.026;2023-07-13T19:54:20;100027.47;;;22.98;70.59
42761;BME280;31672;47.638;19.026;2023-07-13T19:59:29;100026.66;;;22.98;71.20
42761;BME280;31672;47.638;19.026;2023-07-13T20:04:33;100033.97;;;22.97;70.62
42761;BME280;31672;47.638;19.026;2023-07-13T20:09:37;100045.56;;;22.92;70.20
42761;BME280;31672;47.638;19.026;2023-07-13T20:14:47;100053.84;;;22.86;67.86
42761;BME280;31672;47.638;19.026;2023-07-13T20:19:52;100059.69;;;22.78;67.13
42761;BME280;31672;47.638;19.026;2023-07-13T20:24:59;100059.13;;;22.76;66.17
42761;BME280;31672;47.638;19.026;2023-07-13T20:30:04;100054.63;;;22.64;63.90
42761;BME280;31672;47.638;19.026;2023-07-13T20:40:29;100041.66;;;22.66;62.14
42761;BME280;31672;47.638;19.026;2023-07-13T20:45:34;100049.16;;;22.59;63.28
42761;BME280;31672;47.638;19.026;2023-07-13T20:50:40;100035.25;;;22.51;62.63
42761;BME280;31672;47.638;19.026;2023-07-13T20:55:43;100029.66;;;22.40;62.55
42761;BME280;31672;47.638;19.026;2023-07-13T21:00:47;100026.88;;;22.35;61.32
42761;BME280;31672;47.638;19.026;2023-07-13T21:05:54;100017.66;;;22.31;61.22
42761;BME280;31672;47.638;19.026;2023-07-13T21:10:59;100032.00;;;22.32;60.98
42761;BME280;31672;47.638;19.026;2023-07-13T21:16:20;100019.75;;;22.29;60.25
42761;BME280;31672;47.638;19.026;2023-07-13T21:21:25;100029.28;;;22.32;60.17
42761;BME280;31672;47.638;19.026;2023-07-13T21:26:29;100025.78;;;22.31;60.35
42761;BME280;31672;47.638;19.026;2023-07-13T21:31:34;100040.44;;;22.35;61.06
42761;BME280;31672;47.638;19.026;2023-07-13T21:36:39;100035.81;;;22.36;61.95
42761;BME280;31672;47.638;19.026;2023-07-13T21:41:43;100030.41;;;22.36;62.28
42761;BME280;31672;47.638;19.026;2023-07-13T21:46:47;100041.13;;;22.26;62.27
42761;BME280;31672;47.638;19.026;2023-07-13T21:51:51;100040.97;;;22.15;64.94
42761;BME280;31672;47.638;19.026;2023-07-13T21:56:56;100028.63;;;22.08;67.25
42761;BME280;31672;47.638;19.026;2023-07-13T22:02:00;100034.28;;;22.06;69.11
42761;BME280;31672;47.638;19.026;2023-07-13T22:07:04;100028.56;;;22.03;69.87
42761;BME280;31672;47.638;19.026;2023-07-13T22:12:09;100032.72;;;21.94;70.90
42761;BME280;31672;47.638;19.026;2023-07-13T22:17:13;100033.41;;;21.84;72.46
42761;BME280;31672;47.638;19.026;2023-07-13T22:22:19;100034.38;;;21.78;73.59
42761;BME280;31672;47.638;19.026;2023-07-13T22:27:22;100039.13;;;21.71;74.57
42761;BME280;31672;47.638;19.026;2023-07-13T22:32:32;100057.47;;;21.69;75.19
42761;BME280;31672;47.638;19.026;2023-07-13T22:37:37;100045.03;;;21.68;75.14
42761;BME280;31672;47.638;19.026;2023-07-13T22:42:41;100065.59;;;21.69;75.94
42761;BME280;31672;47.638;19.026;2023-07-13T22:47:45;100051.41;;;21.61;76.33
42761;BME280;31672;47.638;19.026;2023-07-13T22:52:48;100058.97;;;21.59;76.52
42761;BME280;31672;47.638;19.026;2023-07-13T22:57:53;100075.66;;;21.56;76.99
42761;BME280;31672;47.638;19.026;2023-07-13T23:02:56;100065.72;;;21.45;77.44
42761;BME280;31672;47.638;19.026;2023-07-13T23:08:00;100069.38;;;21.39;78.42
42761;BME280;31672;47.638;19.026;2023-07-13T23:13:04;100071.88;;;21.29;78.15
42761;BME280;31672;47.638;19.026;2023-07-13T23:18:10;100067.41;;;21.23;77.72
42761;BME280;31672;47.638;19.026;2023-07-13T23:23:17;100078.16;;;21.18;77.38
42761;BME280;31672;47.638;19.026;2023-07-13T23:28:21;100083.44;;;21.13;78.56
42761;BME280;31672;47.638;19.026;2023-07-13T23:33:26;100086.50;;;21.04;78.99
42761;BME280;31672;47.638;19.026;2023-07-13T23:38:31;100088.19;;;20.94;80.13
42761;BME280;31672;47.638;19.026;2023-07-13T23:43:34;100080.94;;;20.82;81.14
42761;BME280;31672;47.638;19.026;2023-07-13T23:48:38;100107.59;;;20.79;81.32
42761;BME280;31672;47.638;19.026;2023-07-13T23:53:41;100105.84;;;20.73;81.89
42761;BME280;31672;47.638;19.026;2023-07-13T23:58:45;100093.75;;;20.64;82.01
